createdAt,value
2024-01-11T00:01:26.070Z,1.9
2024-01-11T00:05:47.890Z,2
2024-01-11T00:10:47.218Z,1.9
2024-01-11T00:15:48.496Z,1.9
2024-01-11T00:20:44.714Z,2.6
2024-01-11T00:25:44.232Z,2.8
2024-01-11T00:30:44.402Z,2.8
2024-01-11T00:40:43.461Z,2.7
2024-01-11T00:50:43.693Z,2.8
2024-01-11T01:10:04.459Z,2.6
2024-01-11T01:35:05.060Z,2.6
2024-01-11T01:50:02.828Z,2.6
2024-01-11T02:04:52.454Z,2.8
2024-01-11T02:19:52.934Z,2.7
2024-01-11T02:29:49.893Z,2.6
2024-01-11T02:34:49.579Z,2.7
2024-01-11T02:44:49.902Z,2.5
2024-01-11T02:49:49.927Z,2.5
2024-01-11T02:59:33.551Z,2.7
2024-01-11T03:04:38.254Z,2.8
2024-01-11T03:14:31.121Z,2.6
2024-01-11T03:19:32.396Z,2.6
2024-01-11T03:29:31.753Z,2.7
2024-01-11T03:34:32.677Z,2.6
2024-01-11T03:44:33.492Z,2.8
2024-01-11T03:49:30.261Z,2.5
2024-01-11T03:59:29.767Z,2.6
2024-01-11T04:04:29.238Z,2.7
2024-01-11T04:14:29.607Z,2.8
2024-01-11T04:19:29.471Z,2.5
2024-01-11T04:29:30.653Z,2.7
2024-01-11T04:34:27.928Z,2.8
2024-01-11T04:44:28.111Z,2.6
2024-01-11T04:49:27.786Z,2.7
2024-01-11T04:59:27.681Z,2.8
2024-01-11T05:01:32.764Z,2.6
2024-01-11T05:10:49.724Z,2.5
2024-01-11T05:20:50.284Z,2.6
2024-01-11T05:25:49.483Z,2.7
2024-01-11T05:35:50.107Z,2.6
2024-01-11T05:40:49.833Z,2.6
2024-01-11T05:45:55.413Z,2.5
2024-01-11T05:50:47.803Z,2.6
2024-01-11T05:55:47.088Z,2.7
2024-01-11T06:05:08.703Z,2.6
2024-01-11T06:10:08.387Z,2.7
2024-01-11T06:15:08.551Z,2.7
2024-01-11T06:20:09.041Z,2.5
2024-01-11T06:35:05.592Z,2.7
2024-01-11T06:50:05.496Z,3.1
2024-01-11T07:04:52.623Z,2.5
2024-01-11T07:19:49.916Z,6.5
2024-01-11T07:29:50.282Z,12.5
2024-01-11T07:34:50.425Z,18.1
2024-01-11T07:49:53.513Z,43.6
2024-01-11T07:59:32.636Z,66.9
2024-01-11T08:01:34.703Z,70
2024-01-11T08:10:53.960Z,90.5
2024-01-11T08:25:55.882Z,123.9
2024-01-11T08:40:52.544Z,156.4
2024-01-11T08:55:53.225Z,183
2024-01-11T09:05:27.883Z,199.7
2024-01-11T09:10:23.798Z,207.3
2024-01-11T09:20:14.100Z,220.3
2024-01-11T09:25:19.732Z,229.3
2024-01-11T09:35:15.995Z,240.5
2024-01-11T09:40:14.593Z,246.4
2024-01-11T09:50:12.375Z,253.3
2024-01-11T09:55:11.268Z,258.8
2024-01-11T10:04:55.203Z,265.3
2024-01-11T10:19:56.041Z,280.4
2024-01-11T10:34:52.921Z,289.3
2024-01-11T10:49:52.422Z,292.7
2024-01-11T10:59:35.628Z,291.2
2024-01-11T11:04:36.933Z,291.4
2024-01-11T11:09:35.297Z,292.5
2024-01-11T11:14:34.319Z,292.2
2024-01-11T11:19:34.218Z,290.7
2024-01-11T11:29:33.646Z,291
2024-01-11T11:34:34.598Z,289.3
2024-01-11T11:44:33.447Z,284.7
2024-01-11T11:49:34.067Z,270.5
2024-01-11T11:59:32.390Z,282.8
2024-01-11T12:04:32.111Z,280.1
2024-01-11T12:14:31.897Z,278.9
2024-01-11T12:19:32.260Z,277.4
2024-01-11T12:29:36.731Z,273.6
2024-01-11T12:34:32.468Z,272.2
2024-01-11T12:44:29.141Z,269.6
2024-01-11T12:49:29.435Z,260.8
2024-01-11T12:59:29.651Z,255.2
2024-01-11T13:01:31.831Z,253.1
2024-01-11T13:10:53.172Z,238
2024-01-11T13:25:50.124Z,221.6
2024-01-11T13:30:50.725Z,200.2
2024-01-11T13:40:50.240Z,203.2
2024-01-11T13:50:52.593Z,189.3
2024-01-11T13:55:52.044Z,193
2024-01-11T14:05:11.728Z,167.9
2024-01-11T14:10:11.721Z,154.5
2024-01-11T14:20:11.764Z,138.7
2024-01-11T14:25:18.528Z,123.6
2024-01-11T14:35:15.004Z,45.8
2024-01-11T14:40:08.786Z,42.6
2024-01-11T14:50:08.725Z,39
2024-01-11T14:55:08.840Z,36.2
2024-01-11T15:04:52.956Z,30.9
2024-01-11T15:09:52.173Z,29.4
2024-01-11T15:19:51.024Z,30.3
2024-01-11T15:29:50.675Z,18.1
2024-01-11T15:34:51.138Z,13.8
2024-01-11T15:40:01.662Z,10.7
2024-01-11T15:44:49.395Z,8.2
2024-01-11T15:49:49.834Z,6.1
2024-01-11T15:59:32.041Z,3.3
2024-01-11T16:04:29.545Z,2.4
2024-01-11T16:14:28.856Z,3.1
2024-01-11T16:19:28.787Z,2.8
2024-01-11T16:29:28.529Z,1.5
2024-01-11T16:34:28.476Z,1.3
2024-01-11T16:44:25.625Z,1.5
2024-01-11T16:49:25.003Z,1.2
2024-01-11T16:59:24.747Z,1.4
2024-01-11T17:04:26.553Z,1.5
2024-01-11T17:14:25.005Z,1.3
2024-01-11T17:19:24.931Z,1.4
2024-01-11T17:29:32.506Z,1.5
2024-01-11T17:34:35.156Z,1.4
2024-01-11T17:39:37.189Z,1.5
2024-01-11T17:44:22.856Z,1.6
2024-01-11T17:49:23.329Z,1.5
2024-01-11T17:59:24.578Z,1.7
2024-01-11T18:01:26.435Z,1.7
2024-01-11T18:05:46.423Z,1.6
2024-01-11T18:10:45.471Z,1.8
2024-01-11T18:20:45.884Z,1.7
2024-01-11T18:25:45.815Z,1.7
2024-01-11T18:35:45.550Z,1.7
2024-01-11T18:40:44.289Z,1.7
2024-01-11T18:50:44.864Z,1.7
2024-01-11T18:55:57.632Z,1.7
2024-01-11T19:05:06.672Z,1.8
2024-01-11T19:10:06.499Z,1.7
2024-01-11T19:20:06.581Z,1.7
2024-01-11T19:25:03.818Z,1.6
2024-01-11T19:35:03.875Z,1.7
2024-01-11T19:50:03.676Z,1.8
2024-01-11T20:04:50.669Z,1.8
2024-01-11T20:19:50.672Z,1.8
2024-01-11T20:34:51.113Z,1.9
2024-01-11T20:49:47.913Z,1.9
2024-01-11T20:59:30.723Z,1.9
2024-01-11T21:04:31.130Z,1.8
2024-01-11T21:14:31.799Z,2
2024-01-11T21:19:32.169Z,2.1
2024-01-11T21:29:28.964Z,2
2024-01-11T21:34:29.069Z,1.9
2024-01-11T21:44:29.194Z,2
2024-01-11T21:49:29.345Z,1.9
2024-01-11T21:59:28.739Z,2.1
2024-01-11T22:04:29.177Z,2.2
2024-01-11T22:14:26.464Z,2
2024-01-11T22:19:27.052Z,2
2024-01-11T22:29:25.879Z,1.9
2024-01-11T22:34:26.053Z,2
2024-01-11T22:44:25.861Z,2.1
2024-01-11T22:49:24.621Z,2.1
2024-01-11T22:59:23.753Z,2.1
2024-01-11T23:01:26.003Z,2.2
2024-01-11T23:10:45.967Z,2.1
2024-01-11T23:15:46.499Z,2.2
2024-01-11T23:25:46.281Z,2.1
2024-01-11T23:40:43.165Z,2.2
2024-01-11T23:55:43.598Z,2.3
